首页
METAR-TAF:

METAR-TAF

机场 :

希拉克機場

久姆里, 亚美尼亚

纬度: 40-45-01N, 经度: 043-51-33E, 海拔: 1524米

当前天气观测

该预报发布于22分钟前的17:00 UTC
风速8节,风向
温度 16°C
湿度 36%
气压 1022 hPa
能见度10公里或以上

METAR: UDSG 061700Z 08008KT 9999 NSC 16/01 Q1022 R02/CLRD70 NOSIG

时间: 21:22 (17:22 UTC)

预报

该预报发布于6小时和14分钟前的11:08 UTC
预报有效从06日的 12点(UTC)到 07日的 12点(UTC)
风速6节,风向东北
能见度10公里或以上
少量云层高于5000英尺
短暂存在
从 06日的 12点(UTC)到 06日的 20点(UTC)
风速16节,风向多变

TAF: UDSG 061108Z 0612/0712 04006KT 9999 FEW050 TEMPO 0612/0620 VRB16KT

超过4000个机场的气象观测和天气预报(METAR&TAF报告)。

可查询的气象台以黄色和红色小点在地图上表示。

将鼠标移到小点上方,可查看气象台名称。

然后点击查看天气观测和预报。

如需切换地图:点击带黑十字的绿色按钮放大地图;点击带横线的绿色按钮缩小地图;或者点击绿色箭头查看邻近地区的地图。


METAR-TAF: